createdAt,value
2022-09-16T00:00:28.022Z,62.74
2022-09-16T00:02:55.579Z,63.75
2022-09-16T00:05:22.924Z,62.48
2022-09-16T00:07:50.277Z,62.41
2022-09-16T00:10:18.283Z,61.81
2022-09-16T00:12:45.506Z,61.98
2022-09-16T00:15:12.748Z,62.08
2022-09-16T00:17:40.189Z,61.18
2022-09-16T00:20:07.780Z,61.04
2022-09-16T00:22:34.965Z,61.73
2022-09-16T00:25:02.424Z,61.09
2022-09-16T00:27:29.690Z,60.89
2022-09-16T00:29:56.872Z,61.09
2022-09-16T00:32:25.115Z,62.24
2022-09-16T00:34:53.078Z,60.92
2022-09-16T00:37:20.372Z,61.52
2022-09-16T00:39:49.225Z,60.54
2022-09-16T00:42:17.143Z,61.09
2022-09-16T00:45:02.152Z,62.20
2022-09-16T00:47:34.409Z,64.03
2022-09-16T00:50:12.192Z,64.47
2022-09-16T00:52:39.929Z,63.45
2022-09-16T00:55:08.252Z,63.40
2022-09-16T00:57:35.465Z,64.22
2022-09-16T01:00:04.080Z,64.62
2022-09-16T01:02:31.368Z,65.46
2022-09-16T01:05:00.657Z,66.74
2022-09-16T01:07:31.956Z,68.49
2022-09-16T01:09:59.718Z,67.09
2022-09-16T01:12:27.217Z,65.70
2022-09-16T01:14:54.706Z,64.49
2022-09-16T01:17:30.985Z,64.19
2022-09-16T01:20:17.111Z,64.47
2022-09-16T01:22:44.296Z,64.90
2022-09-16T01:25:17.671Z,63.62
2022-09-16T01:27:54.433Z,64.70
2022-09-16T01:30:34.470Z,66.20
2022-09-16T01:33:06.071Z,65.62
2022-09-16T01:35:56.944Z,65.95
2022-09-16T01:38:43.200Z,65.68
2022-09-16T01:41:10.671Z,64.78
2022-09-16T01:43:37.873Z,64.65
2022-09-16T01:46:12.566Z,64.35
2022-09-16T01:48:42.365Z,65.01
2022-09-16T01:51:12.348Z,65.34
2022-09-16T01:53:44.477Z,63.81
2022-09-16T01:56:11.799Z,64.36
2022-09-16T01:58:40.841Z,64.24
2022-09-16T02:01:28.579Z,63.54
2022-09-16T02:03:57.974Z,62.42
2022-09-16T02:06:25.160Z,62.52
2022-09-16T02:08:54.228Z,62.84
2022-09-16T02:11:21.798Z,62.51
2022-09-16T02:13:52.106Z,63.04
2022-09-16T02:16:23.553Z,62.16
2022-09-16T02:18:54.844Z,63.27
2022-09-16T02:21:22.358Z,61.76
2022-09-16T02:23:55.172Z,61.49
2022-09-16T02:26:25.071Z,62.84
2022-09-16T02:28:52.237Z,62.17
2022-09-16T02:31:20.789Z,61.80
2022-09-16T02:33:49.579Z,61.69
2022-09-16T02:36:19.372Z,60.58
2022-09-16T02:38:48.007Z,60.89
2022-09-16T02:41:15.568Z,60.44
2022-09-16T02:43:42.763Z,60.18
2022-09-16T02:46:20.257Z,60.51
2022-09-16T02:48:50.895Z,60.21
2022-09-16T02:51:37.173Z,59.94
2022-09-16T02:54:23.070Z,59.26
2022-09-16T02:56:50.255Z,60.76
2022-09-16T02:59:17.775Z,61.00
2022-09-16T03:01:46.131Z,62.31
2022-09-16T03:04:16.899Z,61.75
2022-09-16T03:06:44.652Z,60.63
2022-09-16T03:09:12.500Z,60.94
2022-09-16T03:11:42.735Z,62.69
2022-09-16T03:14:10.137Z,61.66
2022-09-16T03:16:47.109Z,61.77
2022-09-16T03:19:36.868Z,60.84
2022-09-16T03:22:07.209Z,61.24
2022-09-16T03:24:34.633Z,60.35
2022-09-16T03:27:06.455Z,60.50
2022-09-16T03:29:34.098Z,60.34
2022-09-16T03:32:18.872Z,60.37
2022-09-16T03:35:02.820Z,59.95
2022-09-16T03:37:34.283Z,61.29
2022-09-16T03:40:04.734Z,59.60
2022-09-16T03:42:32.276Z,60.76
2022-09-16T03:44:59.557Z,60.76
2022-09-16T03:47:26.824Z,60.01
2022-09-16T03:49:54.290Z,59.12
2022-09-16T03:52:21.585Z,59.11
2022-09-16T03:54:48.803Z,59.96
2022-09-16T03:57:16.323Z,60.39
2022-09-16T03:59:43.518Z,59.30
2022-09-16T04:02:10.813Z,59.55
2022-09-16T04:04:38.500Z,59.30
2022-09-16T04:07:05.746Z,59.07
2022-09-16T04:09:33.122Z,58.80
2022-09-16T04:12:00.664Z,58.98
2022-09-16T04:14:27.850Z,59.13
2022-09-16T04:16:55.209Z,58.43
2022-09-16T04:19:22.813Z,59.25
2022-09-16T04:21:50.031Z,58.57
2022-09-16T04:24:17.581Z,58.20
2022-09-16T04:26:45.603Z,58.90
2022-09-16T04:29:12.851Z,58.18
2022-09-16T04:31:40.046Z,58.09
2022-09-16T04:34:07.536Z,58.16
2022-09-16T04:36:34.767Z,58.79
2022-09-16T04:39:02.041Z,58.16
2022-09-16T04:41:29.618Z,58.14
2022-09-16T04:43:57.540Z,58.77
2022-09-16T04:46:25.478Z,58.39
2022-09-16T04:48:53.433Z,58.58
2022-09-16T04:51:20.942Z,58.41
2022-09-16T04:53:48.500Z,58.43
2022-09-16T04:56:16.873Z,58.14
2022-09-16T04:58:48.192Z,58.21
2022-09-16T05:01:16.542Z,58.22
2022-09-16T05:03:44.699Z,58.06
2022-09-16T05:06:20.431Z,58.38
2022-09-16T05:08:49.053Z,58.68
2022-09-16T05:11:17.247Z,58.12
2022-09-16T05:13:44.546Z,57.86
2022-09-16T05:16:13.221Z,57.47
2022-09-16T05:18:40.960Z,57.61
2022-09-16T05:21:09.375Z,57.34
2022-09-16T05:23:37.915Z,57.51
2022-09-16T05:26:05.928Z,57.61
2022-09-16T05:28:33.902Z,57.95
2022-09-16T05:31:11.104Z,58.22
2022-09-16T05:33:39.084Z,57.57
2022-09-16T05:36:07.096Z,57.44
2022-09-16T05:38:34.438Z,57.38
2022-09-16T05:41:01.926Z,57.32
2022-09-16T05:43:29.491Z,57.35
2022-09-16T05:45:57.117Z,57.16
2022-09-16T05:48:24.326Z,57.46
2022-09-16T05:51:01.793Z,57.21
2022-09-16T05:53:29.648Z,56.94
2022-09-16T05:56:04.636Z,57.47
2022-09-16T05:58:32.452Z,57.10
2022-09-16T06:01:04.208Z,56.38
2022-09-16T06:03:32.040Z,56.07
2022-09-16T06:06:00.045Z,56.29
2022-09-16T06:08:28.398Z,56.30
2022-09-16T06:10:55.977Z,56.17
2022-09-16T06:13:23.275Z,56.14
2022-09-16T06:15:57.048Z,56.80
2022-09-16T06:18:25.100Z,57.41
2022-09-16T06:20:52.345Z,56.49
2022-09-16T06:23:20.110Z,56.19
2022-09-16T06:25:47.635Z,56.25
2022-09-16T06:28:15.415Z,56.13
2022-09-16T06:30:42.822Z,56.86
2022-09-16T06:33:12.826Z,56.37
2022-09-16T06:35:40.094Z,56.08
2022-09-16T06:38:07.284Z,56.13
2022-09-16T06:40:34.815Z,56.43
2022-09-16T06:43:02.882Z,56.14
2022-09-16T06:45:30.120Z,56.89
2022-09-16T06:47:59.154Z,55.73
2022-09-16T06:50:26.382Z,55.93
2022-09-16T06:52:53.653Z,56.40
2022-09-16T06:55:21.290Z,56.16
2022-09-16T06:57:48.522Z,55.46
2022-09-16T07:00:15.759Z,57.65
2022-09-16T07:02:43.260Z,56.65
2022-09-16T07:05:12.080Z,57.63
2022-09-16T07:07:39.568Z,57.89
2022-09-16T07:10:07.444Z,56.62
2022-09-16T07:12:34.757Z,57.59
2022-09-16T07:15:02.375Z,56.23
2022-09-16T07:17:30.157Z,57.49
2022-09-16T07:19:57.387Z,56.08
2022-09-16T07:22:24.594Z,55.42
2022-09-16T07:24:52.087Z,55.42
2022-09-16T07:27:19.546Z,57.58
2022-09-16T07:29:46.731Z,56.85
2022-09-16T07:32:14.299Z,56.15
2022-09-16T07:34:41.501Z,56.74
2022-09-16T07:37:08.716Z,56.39
2022-09-16T07:39:36.325Z,55.88
2022-09-16T07:42:06.169Z,55.65
2022-09-16T07:44:33.600Z,54.98
2022-09-16T07:47:01.116Z,55.72
2022-09-16T07:49:28.362Z,56.94
2022-09-16T07:51:55.728Z,56.87
2022-09-16T07:54:23.293Z,57.28
2022-09-16T07:56:50.509Z,57.57
2022-09-16T07:59:19.400Z,55.85
2022-09-16T08:01:50.447Z,56.67
2022-09-16T08:04:18.835Z,56.26
2022-09-16T08:06:46.066Z,56.81
2022-09-16T08:12:01.888Z,57.46
2022-09-16T08:14:29.193Z,56.08
2022-09-16T08:16:56.475Z,56.61
2022-09-16T08:19:24.016Z,55.92
2022-09-16T08:21:51.383Z,55.46
2022-09-16T08:24:18.685Z,57.21
2022-09-16T08:26:46.357Z,56.18
2022-09-16T08:29:13.880Z,55.36
2022-09-16T08:31:41.383Z,54.46
2022-09-16T08:34:08.960Z,55.22
2022-09-16T08:36:36.610Z,54.89
2022-09-16T08:39:03.972Z,55.79
2022-09-16T08:41:46.849Z,55.18
2022-09-16T08:44:37.481Z,55.75
2022-09-16T08:47:07.507Z,55.03
2022-09-16T08:49:44.023Z,55.05
2022-09-16T08:52:16.501Z,54.81
2022-09-16T08:54:45.356Z,54.08
2022-09-16T08:57:15.021Z,54.12
2022-09-16T08:59:43.735Z,52.30
2022-09-16T09:02:20.481Z,52.01
2022-09-16T09:04:48.291Z,52.41
2022-09-16T09:07:46.423Z,51.68
2022-09-16T09:10:14.405Z,51.26
2022-09-16T09:12:54.663Z,51.15
2022-09-16T09:15:31.468Z,50.85
2022-09-16T09:18:01.887Z,52.25
2022-09-16T09:20:48.134Z,51.20
2022-09-16T09:23:28.029Z,50.91
2022-09-16T09:25:59.819Z,51.64
2022-09-16T09:28:42.523Z,52.14
2022-09-16T09:31:11.022Z,53.89
2022-09-16T09:33:48.862Z,54.32
2022-09-16T09:36:28.950Z,54.07
2022-09-16T09:39:14.544Z,53.63
2022-09-16T09:41:46.847Z,53.80
2022-09-16T09:44:20.331Z,53.32
2022-09-16T09:46:48.785Z,53.25
2022-09-16T09:49:34.489Z,52.98
2022-09-16T09:52:03.338Z,53.20
2022-09-16T09:54:32.238Z,53.53
2022-09-16T09:57:01.740Z,53.00
2022-09-16T09:59:48.614Z,51.60
2022-09-16T10:02:17.328Z,51.07
2022-09-16T10:04:44.913Z,49.08
2022-09-16T10:07:12.484Z,49.02
2022-09-16T10:09:45.445Z,47.75
2022-09-16T10:12:13.038Z,47.59
2022-09-16T10:14:40.370Z,47.90
2022-09-16T10:17:17.325Z,46.24
2022-09-16T10:19:55.680Z,46.13
2022-09-16T10:22:30.297Z,46.12
2022-09-16T10:25:01.914Z,47.88
2022-09-16T10:27:30.147Z,46.61
2022-09-16T10:30:17.145Z,46.24
2022-09-16T10:32:56.675Z,47.76
2022-09-16T10:35:28.057Z,45.97
2022-09-16T10:37:56.497Z,46.42
2022-09-16T10:40:24.733Z,46.79
2022-09-16T10:42:52.867Z,45.82
2022-09-16T10:45:29.662Z,45.57
2022-09-16T10:47:59.955Z,46.16
2022-09-16T10:50:29.517Z,45.95
2022-09-16T10:52:57.310Z,46.53
2022-09-16T10:55:30.675Z,46.59
2022-09-16T10:58:27.930Z,47.22
2022-09-16T11:01:14.422Z,46.74
2022-09-16T11:03:51.716Z,47.56
2022-09-16T11:06:34.315Z,47.14
2022-09-16T11:09:06.061Z,47.91
2022-09-16T11:11:36.297Z,47.57
2022-09-16T11:14:03.778Z,47.68
2022-09-16T11:16:37.250Z,47.62
2022-09-16T11:19:04.845Z,47.09
2022-09-16T11:21:39.313Z,46.67
2022-09-16T11:24:22.213Z,47.37
2022-09-16T11:26:57.218Z,45.67
2022-09-16T11:29:47.795Z,45.92
2022-09-16T11:32:39.108Z,45.72
2022-09-16T11:35:25.413Z,45.35
2022-09-16T11:37:58.904Z,45.70
2022-09-16T11:40:41.779Z,46.71
2022-09-16T11:43:28.501Z,46.49
2022-09-16T11:45:58.657Z,44.39
2022-09-16T11:48:29.040Z,45.91
2022-09-16T11:51:15.722Z,45.70
2022-09-16T11:53:49.927Z,43.40
2022-09-16T11:56:19.101Z,42.42
2022-09-16T11:59:15.685Z,43.75
2022-09-16T12:01:44.913Z,43.56
2022-09-16T12:04:12.509Z,44.46
2022-09-16T12:06:46.400Z,43.88
2022-09-16T12:09:15.762Z,43.75
2022-09-16T12:11:52.117Z,43.33
2022-09-16T12:14:28.329Z,43.27
2022-09-16T12:16:57.143Z,44.35
2022-09-16T12:19:34.615Z,42.61
2022-09-16T12:22:04.589Z,43.00
2022-09-16T12:24:37.758Z,42.34
2022-09-16T12:27:25.032Z,43.45
2022-09-16T12:29:56.422Z,43.11
2022-09-16T12:32:36.063Z,43.49
2022-09-16T12:35:05.543Z,43.77
2022-09-16T12:37:33.857Z,44.83
2022-09-16T12:40:01.388Z,45.09
2022-09-16T12:42:47.675Z,45.05
2022-09-16T12:45:30.035Z,44.57
2022-09-16T12:48:07.013Z,44.47
2022-09-16T12:50:42.523Z,43.89
2022-09-16T12:53:13.185Z,44.93
2022-09-16T12:55:43.610Z,43.91
2022-09-16T12:58:17.307Z,44.03
2022-09-16T13:00:53.772Z,43.77
2022-09-16T13:03:22.802Z,44.73
2022-09-16T13:05:50.885Z,45.40
2022-09-16T13:08:18.139Z,45.63
2022-09-16T13:13:52.249Z,45.58
2022-09-16T13:16:33.123Z,44.67
2022-09-16T13:19:22.565Z,44.95
2022-09-16T13:21:50.074Z,46.09
2022-09-16T13:24:17.356Z,44.87
2022-09-16T13:26:45.163Z,44.76
2022-09-16T13:29:26.049Z,45.41
2022-09-16T13:31:53.567Z,44.96
2022-09-16T13:34:21.838Z,47.67
2022-09-16T13:36:49.211Z,46.85
2022-09-16T13:39:29.116Z,48.37
2022-09-16T13:41:57.107Z,48.16
2022-09-16T13:44:44.745Z,48.85
2022-09-16T13:47:12.231Z,47.11
2022-09-16T13:49:53.321Z,47.10
2022-09-16T13:52:22.136Z,48.05
2022-09-16T13:55:09.482Z,47.14
2022-09-16T13:57:37.739Z,45.25
2022-09-16T14:00:05.398Z,45.83
2022-09-16T14:02:52.266Z,46.61
2022-09-16T14:05:29.851Z,45.93
2022-09-16T14:08:12.571Z,45.65
2022-09-16T14:10:43.345Z,47.33
2022-09-16T14:13:14.968Z,47.71
2022-09-16T14:15:43.628Z,47.05
2022-09-16T14:18:15.304Z,48.37
2022-09-16T14:21:18.129Z,48.84
2022-09-16T14:23:45.735Z,48.47
2022-09-16T14:26:13.827Z,48.47
2022-09-16T14:28:41.144Z,49.47
2022-09-16T14:31:11.797Z,49.09
2022-09-16T14:34:11.642Z,49.30
2022-09-16T14:36:40.388Z,50.48
2022-09-16T14:39:07.618Z,50.05
2022-09-16T14:41:44.462Z,50.83
2022-09-16T14:44:24.704Z,50.31
2022-09-16T14:46:54.421Z,51.10
2022-09-16T14:49:28.891Z,49.62
2022-09-16T14:51:57.937Z,50.47
2022-09-16T14:54:25.926Z,50.07
2022-09-16T14:57:04.171Z,50.16
2022-09-16T14:59:33.671Z,50.43
2022-09-16T15:02:06.062Z,50.25
2022-09-16T15:04:33.762Z,50.92
2022-09-16T15:07:09.545Z,50.75
2022-09-16T15:09:42.631Z,51.39
2022-09-16T15:12:16.551Z,50.46
2022-09-16T15:14:43.808Z,50.31
2022-09-16T15:17:15.306Z,49.05
2022-09-16T15:19:42.538Z,49.04
2022-09-16T15:22:12.992Z,48.81
2022-09-16T15:24:41.206Z,48.84
2022-09-16T15:27:08.538Z,48.87
2022-09-16T15:29:38.584Z,48.78
2022-09-16T15:32:06.896Z,48.89
2022-09-16T15:34:34.220Z,48.65
2022-09-16T15:37:02.072Z,48.82
2022-09-16T15:39:34.124Z,49.32
2022-09-16T15:42:06.133Z,49.82
2022-09-16T15:44:37.345Z,50.65
2022-09-16T15:47:04.885Z,50.38
2022-09-16T15:49:33.138Z,50.57
2022-09-16T15:52:09.157Z,51.24
2022-09-16T15:54:37.477Z,50.84
2022-09-16T15:57:16.143Z,50.82
2022-09-16T15:59:59.705Z,51.31
2022-09-16T16:02:35.128Z,50.93
2022-09-16T16:05:07.798Z,49.94
2022-09-16T16:07:42.295Z,50.44
2022-09-16T16:10:20.371Z,50.45
2022-09-16T16:12:49.295Z,50.18
2022-09-16T16:15:19.091Z,49.98
2022-09-16T16:17:47.050Z,50.30
2022-09-16T16:20:14.800Z,50.18
2022-09-16T16:22:44.787Z,50.17
2022-09-16T16:25:12.271Z,49.99
2022-09-16T16:27:39.900Z,49.85
2022-09-16T16:30:07.746Z,50.23
2022-09-16T16:32:35.145Z,49.69
2022-09-16T16:35:02.856Z,49.87
2022-09-16T16:37:47.149Z,49.57
2022-09-16T16:40:16.123Z,49.42
2022-09-16T16:42:44.188Z,49.56
2022-09-16T16:45:13.015Z,49.17
2022-09-16T16:47:40.336Z,48.78
2022-09-16T16:50:08.019Z,49.25
2022-09-16T16:52:35.249Z,50.21
2022-09-16T16:55:02.478Z,50.35
2022-09-16T16:57:32.733Z,49.75
2022-09-16T16:59:59.959Z,49.69
2022-09-16T17:02:27.477Z,49.72
2022-09-16T17:04:54.978Z,51.00
2022-09-16T17:07:26.093Z,50.87
2022-09-16T17:09:54.373Z,50.16
2022-09-16T17:12:22.794Z,49.74
2022-09-16T17:14:50.293Z,49.58
2022-09-16T17:17:17.608Z,49.47
2022-09-16T17:19:45.091Z,49.47
2022-09-16T17:22:12.333Z,48.77
2022-09-16T17:24:39.772Z,49.10
2022-09-16T17:27:08.462Z,48.32
2022-09-16T17:29:35.672Z,47.79
2022-09-16T17:32:03.395Z,47.80
2022-09-16T17:34:31.934Z,47.45
2022-09-16T17:36:59.370Z,47.23
2022-09-16T17:39:28.867Z,46.82
2022-09-16T17:41:57.969Z,47.80
2022-09-16T17:44:25.492Z,48.10
2022-09-16T17:46:53.774Z,48.56
2022-09-16T17:49:22.330Z,48.61
2022-09-16T17:51:50.114Z,48.37
2022-09-16T17:54:17.942Z,47.57
2022-09-16T17:56:45.717Z,47.42
2022-09-16T17:59:13.535Z,47.55
2022-09-16T18:01:42.227Z,47.16
2022-09-16T18:04:11.859Z,47.11
2022-09-16T18:06:40.482Z,47.17
2022-09-16T18:09:08.149Z,46.82
2022-09-16T18:11:36.061Z,47.21
2022-09-16T18:14:04.580Z,46.97
2022-09-16T18:16:32.104Z,47.76
2022-09-16T18:19:00.226Z,48.23
2022-09-16T18:21:28.882Z,48.55
2022-09-16T18:23:59.167Z,48.14
2022-09-16T18:26:38.238Z,48.17
2022-09-16T18:29:10.849Z,48.50
2022-09-16T18:31:40.613Z,48.79
2022-09-16T18:34:09.407Z,49.66
2022-09-16T18:36:37.804Z,49.32
2022-09-16T18:39:07.285Z,49.06
2022-09-16T18:41:35.368Z,48.89
2022-09-16T18:44:05.266Z,48.79
2022-09-16T18:46:37.298Z,48.65
2022-09-16T18:49:05.445Z,48.80
2022-09-16T18:51:39.602Z,49.23
2022-09-16T18:54:11.056Z,49.71
2022-09-16T18:56:41.511Z,49.05
2022-09-16T18:59:23.849Z,49.29
2022-09-16T19:01:56.646Z,49.33
2022-09-16T19:04:25.161Z,49.76
2022-09-16T19:06:54.590Z,49.58
2022-09-16T19:09:24.782Z,49.53
2022-09-16T19:11:52.956Z,49.53
2022-09-16T19:14:24.239Z,49.71
2022-09-16T19:16:52.081Z,49.53
2022-09-16T19:19:19.834Z,50.02
2022-09-16T19:21:47.727Z,50.04
2022-09-16T19:24:16.676Z,49.66
2022-09-16T19:26:44.292Z,49.78
2022-09-16T19:29:12.471Z,49.76
2022-09-16T19:31:40.530Z,49.77
2022-09-16T19:34:08.255Z,51.05
2022-09-16T19:36:36.479Z,51.09
2022-09-16T19:39:04.757Z,51.58
2022-09-16T19:41:33.721Z,50.65
2022-09-16T19:44:02.169Z,50.81
2022-09-16T19:46:31.731Z,51.04
2022-09-16T19:48:59.055Z,50.88
2022-09-16T19:51:26.871Z,50.88
2022-09-16T19:53:54.353Z,50.58
2022-09-16T19:56:22.651Z,50.03
2022-09-16T19:58:51.117Z,51.37
2022-09-16T20:01:19.642Z,51.51
2022-09-16T20:03:49.351Z,51.37
2022-09-16T20:06:17.668Z,50.75
2022-09-16T20:08:45.720Z,51.12
2022-09-16T20:11:13.310Z,50.98
2022-09-16T20:13:41.138Z,51.25
2022-09-16T20:16:09.150Z,51.48
2022-09-16T20:18:36.833Z,51.75
2022-09-16T20:21:04.963Z,52.07
2022-09-16T20:23:32.559Z,52.22
2022-09-16T20:26:03.972Z,52.36
2022-09-16T20:28:32.054Z,52.94
2022-09-16T20:30:59.799Z,52.71
2022-09-16T20:33:31.267Z,52.59
2022-09-16T20:36:07.440Z,52.96
2022-09-16T20:38:34.715Z,53.20
2022-09-16T20:41:06.004Z,53.33
2022-09-16T20:43:33.544Z,53.50
2022-09-16T20:46:11.920Z,53.22
2022-09-16T20:48:40.327Z,52.59
2022-09-16T20:51:09.020Z,52.65
2022-09-16T20:53:36.781Z,52.48
2022-09-16T20:56:05.275Z,53.45
2022-09-16T20:58:35.693Z,54.15
2022-09-16T21:01:03.873Z,53.19
2022-09-16T21:03:31.721Z,52.68
2022-09-16T21:06:02.392Z,53.14
2022-09-16T21:08:33.766Z,52.94
2022-09-16T21:11:05.471Z,53.42
2022-09-16T21:13:33.172Z,54.82
2022-09-16T21:16:00.609Z,54.59
2022-09-16T21:18:28.409Z,58.01
2022-09-16T21:20:59.537Z,56.54
2022-09-16T21:23:26.941Z,57.20
2022-09-16T21:25:55.321Z,58.59
2022-09-16T21:28:23.259Z,59.90
2022-09-16T21:30:57.905Z,60.23
2022-09-16T21:33:27.345Z,58.83
2022-09-16T21:35:54.987Z,58.99
2022-09-16T21:38:22.959Z,60.38
2022-09-16T21:40:57.074Z,59.42
2022-09-16T21:43:28.026Z,58.14
2022-09-16T21:45:55.640Z,58.39
2022-09-16T21:48:23.011Z,59.46
2022-09-16T21:50:50.502Z,59.27
2022-09-16T21:53:17.996Z,58.94
2022-09-16T21:55:45.184Z,59.34
2022-09-16T21:58:12.453Z,59.12
2022-09-16T22:00:40.577Z,58.83
2022-09-16T22:03:08.128Z,58.94
2022-09-16T22:05:35.412Z,58.76
2022-09-16T22:08:02.912Z,59.83
2022-09-16T22:10:30.431Z,59.87
2022-09-16T22:12:57.692Z,59.35
2022-09-16T22:15:25.040Z,59.44
2022-09-16T22:17:54.337Z,59.50
2022-09-16T22:20:23.527Z,60.22
2022-09-16T22:22:50.808Z,59.92
2022-09-16T22:25:18.403Z,60.44
2022-09-16T22:27:45.633Z,59.96
2022-09-16T22:30:12.970Z,60.17
2022-09-16T22:32:41.318Z,61.75
2022-09-16T22:35:08.987Z,62.92
2022-09-16T22:37:36.174Z,61.10
2022-09-16T22:40:04.171Z,63.61
2022-09-16T22:42:31.422Z,61.15
2022-09-16T22:44:58.593Z,61.10
2022-09-16T22:47:26.151Z,60.44
2022-09-16T22:49:54.076Z,60.09
2022-09-16T22:52:21.325Z,61.07
2022-09-16T22:54:48.839Z,60.93
2022-09-16T22:57:16.299Z,60.74
2022-09-16T22:59:43.833Z,60.30
2022-09-16T23:02:11.339Z,59.81
2022-09-16T23:04:38.683Z,61.40
2022-09-16T23:07:06.004Z,60.03
2022-09-16T23:09:52.515Z,59.79
2022-09-16T23:12:19.699Z,59.21
2022-09-16T23:14:47.168Z,59.57
2022-09-16T23:17:14.658Z,58.52
2022-09-16T23:19:41.860Z,58.71
2022-09-16T23:22:09.332Z,60.67
2022-09-16T23:24:36.583Z,59.72
2022-09-16T23:27:03.900Z,60.42
2022-09-16T23:29:31.388Z,59.74
2022-09-16T23:32:02.587Z,59.29
2022-09-16T23:34:29.855Z,59.02
2022-09-16T23:36:57.334Z,61.53
2022-09-16T23:39:24.586Z,59.17
2022-09-16T23:41:52.454Z,59.98
2022-09-16T23:44:22.408Z,59.95
2022-09-16T23:46:49.710Z,60.49
2022-09-16T23:49:19.354Z,59.78
2022-09-16T23:51:47.254Z,59.87
2022-09-16T23:54:14.511Z,60.21
2022-09-16T23:56:42.758Z,60.99
2022-09-16T23:59:10.399Z,60.82
